createdAt,value
2023-02-16T00:04:41.924Z,15.2
2023-02-16T00:19:51.852Z,16.4
2023-02-16T00:35:01.366Z,17.2
2023-02-16T00:50:10.508Z,15.4
2023-02-16T01:05:20.307Z,16.2
2023-02-16T01:20:29.862Z,16.7
2023-02-16T01:35:42.118Z,16.1
2023-02-16T01:50:51.216Z,16
2023-02-16T02:06:00.984Z,17
2023-02-16T02:21:10.714Z,19.7
2023-02-16T02:36:19.829Z,17.7
2023-02-16T02:51:29.559Z,16.9
2023-02-16T03:06:39.525Z,18.6
2023-02-16T03:21:49.005Z,19.7
2023-02-16T03:36:58.590Z,19.1
2023-02-16T03:52:08.158Z,20.7
2023-02-16T04:07:17.416Z,20.5
2023-02-16T04:22:26.319Z,22.2
2023-02-16T04:37:36.736Z,24.4
2023-02-16T04:52:46.613Z,25.6
2023-02-16T05:07:56.171Z,29.3
2023-02-16T05:23:06.071Z,28.2
2023-02-16T05:38:15.581Z,27.1
2023-02-16T05:53:25.287Z,24.9
2023-02-16T06:08:35.057Z,26.2
2023-02-16T06:23:44.735Z,28.2
2023-02-16T06:38:55.683Z,27.7
2023-02-16T06:54:05.814Z,28.6
2023-02-16T07:09:15.539Z,27.1
2023-02-16T07:24:24.989Z,27.1
2023-02-16T07:39:34.601Z,27.5
2023-02-16T07:54:43.073Z,26
2023-02-16T08:09:52.660Z,27.2
2023-02-16T08:25:02.492Z,23.8
2023-02-16T08:40:12.517Z,24.4
2023-02-16T08:55:22.408Z,22.4
2023-02-16T09:10:32.647Z,23.6
2023-02-16T09:25:42.611Z,24.3
2023-02-16T09:40:52.199Z,22.7
2023-02-16T09:56:02.114Z,23.7
2023-02-16T10:11:13.245Z,21.2
2023-02-16T10:26:22.772Z,23
2023-02-16T10:41:33.141Z,22.3
2023-02-16T10:56:42.898Z,21
2023-02-16T11:11:53.399Z,21.9
2023-02-16T11:27:02.872Z,22.7
2023-02-16T11:42:12.614Z,21.3
2023-02-16T11:57:22.310Z,20.2
2023-02-16T12:12:32.852Z,19.3
2023-02-16T12:27:42.380Z,19.4
2023-02-16T12:42:52.209Z,20
2023-02-16T12:58:02.438Z,20.1
2023-02-16T13:13:12.773Z,20
2023-02-16T13:28:23.113Z,19.4
2023-02-16T13:43:32.875Z,20.8
2023-02-16T13:58:42.578Z,19
2023-02-16T14:13:52.162Z,20.3
2023-02-16T14:29:02.397Z,20.2
2023-02-16T14:44:12.587Z,19.9
2023-02-16T14:59:21.886Z,20.5
2023-02-16T15:14:31.176Z,21.1
2023-02-16T15:29:40.563Z,20.7
2023-02-16T15:44:50.446Z,21.1
2023-02-16T16:00:00.354Z,19.8
2023-02-16T16:15:09.114Z,19.6
2023-02-16T16:30:19.374Z,20.9
2023-02-16T16:45:29.527Z,22.8
2023-02-16T17:00:39.639Z,21.6
2023-02-16T17:15:49.155Z,22.3
2023-02-16T17:30:59.089Z,21.6
2023-02-16T17:46:09.339Z,23.6
2023-02-16T18:01:19.518Z,23.7
2023-02-16T18:16:29.710Z,28.5
2023-02-16T18:31:39.466Z,24.8
2023-02-16T18:46:49.836Z,24.9
2023-02-16T19:01:59.345Z,25.3
2023-02-16T19:17:07.955Z,27.3
2023-02-16T19:32:17.072Z,24.4
2023-02-16T19:47:25.781Z,25.8
2023-02-16T20:02:35.155Z,25.9
2023-02-16T20:17:45.240Z,27.2
2023-02-16T20:32:54.700Z,26.7
2023-02-16T20:48:04.207Z,30.3
2023-02-16T21:03:14.125Z,26.7
2023-02-16T21:18:23.680Z,24
2023-02-16T21:33:32.302Z,24
2023-02-16T21:48:41.807Z,24
2023-02-16T22:03:51.334Z,26
2023-02-16T22:19:00.817Z,25.8
2023-02-16T22:34:09.975Z,27
2023-02-16T22:49:20.211Z,27
2023-02-16T23:04:29.711Z,25.5
2023-02-16T23:19:39.256Z,24.1
2023-02-16T23:34:49.046Z,22.1
2023-02-16T23:49:58.504Z,21.2
